SWR639 LFPG-LSZH
Flight info
| Callsign | SWR639 |
|---|---|
| Flight time | N/A |
| Altitude | 33000 |
| Route | BUBLI DCT LUVAL DCT OKIPO DCT PEVIT DCT BLM |
| Aircraft | A20N/M-SDE2E3FGHIRWXY/LB1 |
Departure
| Time | 2026-05-01 15:25 |
|---|---|
| Airport | Charles de Gaulle International Airport (LFPG) |
Arrival
| Time | N/A |
|---|---|
| Airport | Zürich Airport (LSZH) |
| Time | Latitude | Longitude | Altitude | Speed | Heading |
|---|---|---|---|---|---|
| 2026-05-01 14:55 | 49.00553 | 2.56529 | 356 ft | 0 kts | 181° |
| 2026-05-01 15:13 | 49.00597 | 2.56531 | 357 ft | 3 kts | 186° |
| 2026-05-01 15:14 | 49.00618 | 2.56584 | 359 ft | 0 kts | 283° |
| 2026-05-01 15:17 | 49.00620 | 2.56569 | 358 ft | 5 kts | 282° |
| 2026-05-01 15:18 | 49.00613 | 2.56196 | 349 ft | 17 kts | 266° |
| 2026-05-01 15:18 | 49.00592 | 2.56029 | 346 ft | 16 kts | 252° |
| 2026-05-01 15:19 | 49.00536 | 2.55527 | 334 ft | 13 kts | 236° |
| 2026-05-01 15:19 | 49.00361 | 2.55509 | 330 ft | 12 kts | 165° |
| 2026-05-01 15:19 | 49.00274 | 2.55547 | 330 ft | 13 kts | 163° |
| 2026-05-01 15:20 | 49.00088 | 2.55626 | 329 ft | 14 kts | 165° |
| 2026-05-01 15:20 | 48.99983 | 2.55672 | 326 ft | 15 kts | 184° |
| 2026-05-01 15:20 | 48.99907 | 2.55561 | 326 ft | 15 kts | 244° |
| 2026-05-01 15:21 | 48.99889 | 2.55389 | 323 ft | 17 kts | 265° |
| 2026-05-01 15:21 | 48.99865 | 2.55249 | 322 ft | 12 kts | 216° |
| 2026-05-01 15:21 | 48.99791 | 2.55255 | 324 ft | 10 kts | 162° |
| 2026-05-01 15:21 | 48.99741 | 2.55307 | 325 ft | 11 kts | 107° |
| 2026-05-01 15:22 | 48.99751 | 2.55744 | 331 ft | 11 kts | 89° |
| 2026-05-01 15:22 | 48.99747 | 2.55772 | 331 ft | 0 kts | 119° |
| 2026-05-01 15:23 | 48.99747 | 2.55773 | 331 ft | 0 kts | 119° |
| 2026-05-01 15:23 | 48.99685 | 2.55817 | 332 ft | 15 kts | 176° |
| 2026-05-01 15:24 | 48.99607 | 2.55858 | 332 ft | 11 kts | 109° |
| 2026-05-01 15:24 | 48.99609 | 2.56012 | 332 ft | 33 kts | 86° |
| 2026-05-01 15:24 | 48.99648 | 2.56753 | 340 ft | 104 kts | 86° |
| 2026-05-01 15:24 | 48.99724 | 2.58162 | 334 ft | 161 kts | 86° |
| 2026-05-01 15:25 | 48.99829 | 2.59910 | 786 ft | 170 kts | 88° |
| 2026-05-01 15:25 | 48.99927 | 2.61716 | 1428 ft | 174 kts | 88° |
| 2026-05-01 15:25 | 49.00022 | 2.63528 | 2111 ft | 176 kts | 88° |
| 2026-05-01 15:25 | 49.00118 | 2.65373 | 2792 ft | 177 kts | 88° |
| 2026-05-01 15:26 | 49.00214 | 2.67226 | 3451 ft | 178 kts | 88° |
| 2026-05-01 15:26 | 49.00314 | 2.69138 | 3902 ft | 190 kts | 88° |
| 2026-05-01 15:26 | 49.00420 | 2.71211 | 4293 ft | 207 kts | 88° |
| 2026-05-01 15:26 | 49.00542 | 2.73509 | 4620 ft | 230 kts | 87° |
| 2026-05-01 15:27 | 49.00675 | 2.76011 | 5085 ft | 249 kts | 87° |
| 2026-05-01 15:27 | 49.00604 | 2.78718 | 5536 ft | 264 kts | 107° |
| 2026-05-01 15:27 | 48.99967 | 2.81369 | 6264 ft | 271 kts | 114° |
| 2026-05-01 15:28 | 48.98480 | 2.86645 | 8034 ft | 276 kts | 114° |
| 2026-05-01 15:28 | 48.97762 | 2.89322 | 8860 ft | 279 kts | 113° |
| 2026-05-01 15:28 | 48.97052 | 2.92052 | 9708 ft | 281 kts | 113° |
| 2026-05-01 15:29 | 48.95628 | 2.97657 | 11068 ft | 298 kts | 113° |
| 2026-05-01 15:29 | 48.94861 | 3.00701 | 11479 ft | 315 kts | 113° |
| 2026-05-01 15:29 | 48.93276 | 3.07028 | 12915 ft | 326 kts | 113° |
| 2026-05-01 15:30 | 48.91661 | 3.13474 | 14459 ft | 331 kts | 113° |
| 2026-05-01 15:31 | 48.88340 | 3.26673 | 17365 ft | 342 kts | 113° |
| 2026-05-01 15:31 | 48.86624 | 3.33458 | 18680 ft | 349 kts | 113° |
| 2026-05-01 15:32 | 48.84876 | 3.40358 | 19951 ft | 356 kts | 113° |
| 2026-05-01 15:32 | 48.83081 | 3.47412 | 21195 ft | 362 kts | 113° |
| 2026-05-01 15:33 | 48.80970 | 3.58504 | 22936 ft | 376 kts | 101° |
| 2026-05-01 15:34 | 48.80156 | 3.70463 | 24585 ft | 386 kts | 99° |